createdAt,value
2022-09-20T00:00:50.261Z,0.00
2022-09-20T00:01:50.297Z,0.00
2022-09-20T00:02:50.347Z,0.00
2022-09-20T00:03:50.408Z,0.00
2022-09-20T00:04:50.533Z,0.00
2022-09-20T00:05:50.447Z,0.00
2022-09-20T00:06:50.462Z,0.00
2022-09-20T00:07:50.450Z,0.00
2022-09-20T00:08:50.460Z,0.00
2022-09-20T00:09:50.472Z,0.00
2022-09-20T00:10:50.487Z,0.00
2022-09-20T00:11:50.489Z,0.00
2022-09-20T00:12:50.540Z,0.00
2022-09-20T00:13:50.578Z,0.00
2022-09-20T00:14:50.570Z,0.00
2022-09-20T00:15:50.591Z,0.00
2022-09-20T00:16:50.657Z,0.00
2022-09-20T00:17:50.618Z,0.00
2022-09-20T00:18:50.622Z,0.00
2022-09-20T00:19:50.649Z,0.00
2022-09-20T00:20:50.711Z,0.00
2022-09-20T00:21:50.732Z,0.00
2022-09-20T00:22:50.736Z,0.00
2022-09-20T00:23:50.732Z,0.00
2022-09-20T00:24:50.731Z,0.00
2022-09-20T00:25:50.822Z,0.00
2022-09-20T00:26:50.802Z,0.00
2022-09-20T00:27:50.813Z,0.00
2022-09-20T00:28:50.813Z,0.00
2022-09-20T00:29:50.821Z,0.00
2022-09-20T00:30:50.816Z,0.00
2022-09-20T00:31:50.852Z,0.00
2022-09-20T00:32:50.804Z,0.00
2022-09-20T00:33:50.827Z,0.00
2022-09-20T00:34:50.844Z,0.00
2022-09-20T00:35:50.856Z,0.00
2022-09-20T00:36:50.857Z,0.00
2022-09-20T00:37:50.855Z,0.00
2022-09-20T00:38:50.865Z,0.00
2022-09-20T00:39:50.865Z,0.00
2022-09-20T00:40:50.864Z,0.00
2022-09-20T00:41:50.856Z,0.00
2022-09-20T00:42:50.860Z,0.00
2022-09-20T00:43:50.858Z,0.00
2022-09-20T00:44:50.878Z,0.00
2022-09-20T00:45:50.982Z,0.00
2022-09-20T00:46:50.907Z,0.00
2022-09-20T00:47:50.915Z,0.00
2022-09-20T00:48:50.916Z,0.00
2022-09-20T00:49:50.908Z,0.00
2022-09-20T00:50:50.938Z,0.00
2022-09-20T00:51:50.938Z,0.00
2022-09-20T00:52:50.948Z,0.00
2022-09-20T00:53:50.938Z,0.00
2022-09-20T00:54:50.970Z,0.00
2022-09-20T00:55:50.992Z,0.00
2022-09-20T00:56:51.000Z,0.00
2022-09-20T00:57:51.003Z,0.00
2022-09-20T00:58:50.990Z,0.00
2022-09-20T00:59:50.998Z,0.00
2022-09-20T01:00:51.048Z,0.00
2022-09-20T01:01:51.023Z,0.00
2022-09-20T01:02:51.125Z,0.00
2022-09-20T01:03:51.081Z,0.00
2022-09-20T01:04:51.093Z,0.00
2022-09-20T01:05:51.092Z,0.00
2022-09-20T01:06:51.103Z,0.00
2022-09-20T01:07:51.125Z,0.00
2022-09-20T01:08:51.146Z,0.00
2022-09-20T01:09:51.152Z,0.00
2022-09-20T01:10:51.153Z,0.00
2022-09-20T01:11:51.165Z,0.00
2022-09-20T01:12:51.163Z,0.00
2022-09-20T01:13:51.193Z,0.00
2022-09-20T01:14:51.243Z,0.00
2022-09-20T01:15:51.243Z,0.00
2022-09-20T01:16:51.350Z,0.00
2022-09-20T01:17:51.322Z,0.00
2022-09-20T01:18:51.344Z,0.00
2022-09-20T01:19:51.346Z,0.00
2022-09-20T01:20:51.344Z,0.00
2022-09-20T01:21:51.365Z,0.00
2022-09-20T01:22:51.415Z,0.00
2022-09-20T01:23:51.465Z,0.00
2022-09-20T01:24:51.467Z,0.00
2022-09-20T01:25:51.486Z,0.00
2022-09-20T01:26:51.486Z,0.00
2022-09-20T01:27:51.476Z,0.00
2022-09-20T01:28:51.487Z,0.00
2022-09-20T01:29:51.486Z,0.00
2022-09-20T01:30:51.497Z,0.00
2022-09-20T01:31:51.597Z,0.00
2022-09-20T01:32:51.560Z,0.00
2022-09-20T01:33:51.563Z,0.00
2022-09-20T01:34:51.568Z,0.00
2022-09-20T01:35:51.627Z,0.00
2022-09-20T01:36:51.637Z,0.00
2022-09-20T01:37:51.639Z,0.00
2022-09-20T01:38:51.700Z,0.00
2022-09-20T01:39:51.721Z,0.00
2022-09-20T01:40:51.721Z,0.00
2022-09-20T01:41:51.769Z,0.00
2022-09-20T01:42:51.800Z,0.00
2022-09-20T01:43:51.844Z,0.00
2022-09-20T01:44:51.848Z,0.00
2022-09-20T01:45:51.881Z,0.00
2022-09-20T01:46:58.550Z,0.00
2022-09-20T01:47:51.920Z,0.00
2022-09-20T01:48:51.991Z,0.00
2022-09-20T01:49:51.991Z,0.00
2022-09-20T01:50:52.052Z,0.00
2022-09-20T01:51:52.115Z,0.00
2022-09-20T01:52:52.132Z,0.00
2022-09-20T01:53:52.142Z,0.00
2022-09-20T01:54:52.152Z,0.00
2022-09-20T01:55:52.172Z,0.00
2022-09-20T01:56:52.172Z,0.00
2022-09-20T01:57:52.194Z,0.00
2022-09-20T01:59:07.182Z,0.00
2022-09-20T01:59:52.221Z,0.00
2022-09-20T02:00:52.254Z,0.00
2022-09-20T02:01:52.264Z,0.00
2022-09-20T02:02:52.305Z,0.00
2022-09-20T02:03:52.314Z,0.00
2022-09-20T02:04:52.324Z,0.00
2022-09-20T02:05:52.334Z,0.00
2022-09-20T02:06:52.335Z,0.00
2022-09-20T02:07:52.345Z,0.00
2022-09-20T02:08:52.409Z,0.00
2022-09-20T02:09:52.413Z,0.00
2022-09-20T02:10:52.417Z,0.00
2022-09-20T02:11:52.441Z,0.00
2022-09-20T02:12:52.497Z,0.00
2022-09-20T02:13:52.506Z,0.00
2022-09-20T02:14:52.517Z,0.00
2022-09-20T02:15:52.548Z,0.00
2022-09-20T02:16:52.629Z,0.00
2022-09-20T02:17:52.647Z,0.00
2022-09-20T02:18:52.647Z,0.00
2022-09-20T02:19:52.669Z,0.00
2022-09-20T02:20:52.670Z,0.00
2022-09-20T02:21:52.668Z,0.00
2022-09-20T02:22:52.718Z,0.00
2022-09-20T02:23:52.781Z,0.00
2022-09-20T02:24:52.747Z,0.00
2022-09-20T02:25:52.800Z,0.00
2022-09-20T02:26:52.820Z,0.00
2022-09-20T02:27:52.850Z,0.00
2022-09-20T02:28:52.866Z,0.00
2022-09-20T02:29:52.859Z,0.00
2022-09-20T02:30:52.881Z,0.00
2022-09-20T02:31:53.000Z,0.00
2022-09-20T02:32:52.942Z,0.00
2022-09-20T02:33:52.941Z,0.00
2022-09-20T02:34:52.942Z,0.00
2022-09-20T02:35:52.935Z,0.00
2022-09-20T02:36:52.947Z,0.00
2022-09-20T02:37:52.963Z,0.00
2022-09-20T02:38:53.101Z,0.00
2022-09-20T02:39:53.043Z,0.00
2022-09-20T02:40:53.052Z,0.00
2022-09-20T02:41:53.052Z,0.00
2022-09-20T02:42:53.094Z,0.00
2022-09-20T02:43:53.091Z,0.00
2022-09-20T02:44:53.134Z,0.00
2022-09-20T02:45:53.190Z,0.00
2022-09-20T02:46:53.185Z,0.00
2022-09-20T02:47:53.185Z,0.00
2022-09-20T02:48:53.186Z,0.00
2022-09-20T02:49:53.207Z,0.00
2022-09-20T02:50:53.215Z,0.00
2022-09-20T02:51:53.245Z,0.00
2022-09-20T02:52:53.295Z,0.00
2022-09-20T02:53:53.337Z,0.00
2022-09-20T02:54:53.375Z,0.00
2022-09-20T02:55:53.363Z,0.00
2022-09-20T02:56:53.356Z,0.00
2022-09-20T02:57:53.407Z,0.00
2022-09-20T02:58:53.457Z,0.00
2022-09-20T02:59:53.458Z,0.00
2022-09-20T03:02:19.514Z,0.00
2022-09-20T03:03:19.509Z,0.00
2022-09-20T03:04:19.527Z,0.00
2022-09-20T03:05:19.548Z,0.00
2022-09-20T03:06:19.536Z,0.00
2022-09-20T03:07:19.597Z,0.00
2022-09-20T03:08:19.588Z,0.00
2022-09-20T03:09:19.579Z,0.00
2022-09-20T03:10:19.588Z,0.00
2022-09-20T03:11:19.587Z,0.00
2022-09-20T03:12:19.584Z,0.00
2022-09-20T03:13:19.570Z,0.00
2022-09-20T03:14:19.639Z,0.00
2022-09-20T03:15:19.640Z,0.00
2022-09-20T03:16:19.710Z,0.00
2022-09-20T03:17:19.720Z,0.00
2022-09-20T03:18:19.735Z,0.00
2022-09-20T03:19:19.758Z,0.00
2022-09-20T03:20:19.780Z,0.00
2022-09-20T03:21:19.781Z,0.00
2022-09-20T03:22:19.802Z,0.00
2022-09-20T03:23:19.801Z,0.00
2022-09-20T03:24:19.801Z,0.00
2022-09-20T03:25:19.801Z,0.00
2022-09-20T03:26:19.812Z,0.00
2022-09-20T03:27:19.832Z,0.00
2022-09-20T03:28:19.822Z,0.00
2022-09-20T03:29:19.812Z,0.00
2022-09-20T03:30:19.862Z,0.00
2022-09-20T03:31:19.878Z,0.00
2022-09-20T03:32:19.904Z,0.00
2022-09-20T03:33:19.903Z,0.00
2022-09-20T03:34:19.893Z,0.00
2022-09-20T03:35:19.904Z,0.00
2022-09-20T03:36:19.894Z,0.00
2022-09-20T03:37:19.905Z,0.00
2022-09-20T03:38:19.896Z,0.00
2022-09-20T03:39:19.892Z,0.00
2022-09-20T03:40:19.922Z,0.00
2022-09-20T03:42:45.942Z,0.00
2022-09-20T03:43:46.034Z,0.00
2022-09-20T03:44:46.033Z,0.00
2022-09-20T03:45:46.063Z,0.00
2022-09-20T03:46:46.093Z,0.00
2022-09-20T03:47:46.083Z,0.00
2022-09-20T03:48:46.094Z,0.00
2022-09-20T03:49:46.084Z,0.00
2022-09-20T03:50:46.080Z,0.00
2022-09-20T03:51:46.073Z,0.00
2022-09-20T03:52:46.092Z,0.00
2022-09-20T03:53:46.093Z,0.00
2022-09-20T03:54:46.095Z,0.00
2022-09-20T03:55:46.105Z,0.00
2022-09-20T03:56:46.125Z,0.00
2022-09-20T03:57:46.167Z,0.00
2022-09-20T03:58:46.165Z,0.00
2022-09-20T03:59:46.166Z,0.00
2022-09-20T04:00:46.234Z,0.00
2022-09-20T04:01:46.227Z,0.00
2022-09-20T04:02:46.361Z,0.00
2022-09-20T04:03:46.265Z,0.00
2022-09-20T04:04:46.260Z,0.00
2022-09-20T04:05:46.269Z,0.00
2022-09-20T04:06:46.269Z,0.00
2022-09-20T04:07:46.270Z,0.00
2022-09-20T04:08:46.270Z,0.00
2022-09-20T04:09:46.269Z,0.00
2022-09-20T04:10:46.291Z,0.00
2022-09-20T04:11:46.300Z,0.00
2022-09-20T04:12:46.300Z,0.00
2022-09-20T04:13:46.301Z,0.00
2022-09-20T04:14:46.299Z,0.00
2022-09-20T04:15:46.311Z,0.00
2022-09-20T04:16:46.412Z,0.00
2022-09-20T04:17:46.360Z,0.00
2022-09-20T04:18:46.360Z,0.00
2022-09-20T04:19:46.360Z,0.00
2022-09-20T04:20:46.372Z,0.00
2022-09-20T04:21:46.392Z,0.00
2022-09-20T04:22:46.389Z,0.00
2022-09-20T04:23:46.395Z,0.00
2022-09-20T04:24:46.392Z,0.00
2022-09-20T04:25:46.381Z,0.00
2022-09-20T04:26:46.373Z,0.00
2022-09-20T04:27:46.383Z,0.00
2022-09-20T04:28:46.392Z,0.00
2022-09-20T04:29:46.383Z,0.00
2022-09-20T04:30:46.373Z,0.00
2022-09-20T04:31:50.868Z,4.00
2022-09-20T04:32:46.383Z,4.00
2022-09-20T04:33:46.382Z,0.00
2022-09-20T04:34:46.374Z,4.00
2022-09-20T04:35:46.373Z,8.00
2022-09-20T04:36:46.375Z,4.00
2022-09-20T04:37:46.373Z,4.00
2022-09-20T04:38:46.385Z,4.00
2022-09-20T04:39:46.407Z,8.00
2022-09-20T04:40:46.483Z,8.00
2022-09-20T04:41:46.445Z,12.00
2022-09-20T04:42:46.465Z,16.00
2022-09-20T04:43:46.496Z,16.00
2022-09-20T04:44:46.537Z,20.00
2022-09-20T04:45:46.626Z,24.00
2022-09-20T04:46:46.595Z,28.00
2022-09-20T04:47:46.616Z,32.00
2022-09-20T04:48:46.637Z,36.00
2022-09-20T04:49:46.678Z,48.00
2022-09-20T04:50:46.707Z,52.00
2022-09-20T04:51:46.728Z,52.00
2022-09-20T04:52:46.768Z,68.00
2022-09-20T04:53:46.790Z,72.00
2022-09-20T04:54:46.827Z,72.00
2022-09-20T04:55:46.849Z,84.00
2022-09-20T04:56:46.879Z,92.00
2022-09-20T04:57:46.918Z,108.00
2022-09-20T04:58:46.994Z,116.00
2022-09-20T04:59:46.989Z,124.00
2022-09-20T05:00:47.097Z,144.00
2022-09-20T05:01:47.075Z,156.00
2022-09-20T05:02:47.051Z,168.00
2022-09-20T05:03:47.072Z,172.00
2022-09-20T05:04:47.089Z,188.00
2022-09-20T05:05:47.110Z,204.00
2022-09-20T05:06:47.132Z,212.00
2022-09-20T05:07:47.152Z,224.00
2022-09-20T05:08:47.171Z,216.00
2022-09-20T05:09:47.181Z,240.00
2022-09-20T05:10:47.194Z,264.00
2022-09-20T05:11:47.195Z,272.00
2022-09-20T05:12:47.233Z,288.00
2022-09-20T05:13:47.273Z,288.00
2022-09-20T05:14:47.302Z,328.00
2022-09-20T05:15:47.332Z,352.00
2022-09-20T05:16:47.426Z,376.00
2022-09-20T05:17:47.429Z,396.00
2022-09-20T05:18:47.405Z,436.00
2022-09-20T05:19:47.478Z,496.00
2022-09-20T05:20:47.453Z,540.00
2022-09-20T05:21:47.493Z,528.00
2022-09-20T05:22:47.525Z,568.00
2022-09-20T05:23:47.553Z,604.00
2022-09-20T05:24:47.565Z,672.00
2022-09-20T05:25:47.615Z,688.00
2022-09-20T05:26:47.684Z,804.00
2022-09-20T05:27:47.735Z,792.00
2022-09-20T05:28:47.767Z,888.00
2022-09-20T05:29:47.805Z,880.00
2022-09-20T05:30:47.826Z,868.00
2022-09-20T05:31:47.918Z,888.00
2022-09-20T05:32:47.896Z,1020.00
2022-09-20T05:33:47.885Z,1112.00
2022-09-20T05:34:47.927Z,1260.00
2022-09-20T05:35:47.936Z,1408.00
2022-09-20T05:36:47.919Z,1600.00
2022-09-20T05:37:47.976Z,1800.00
2022-09-20T05:38:48.049Z,2156.00
2022-09-20T05:39:48.108Z,2176.00
2022-09-20T05:40:48.130Z,2292.00
2022-09-20T05:41:48.118Z,2400.00
2022-09-20T05:42:48.149Z,2660.00
2022-09-20T05:43:48.147Z,2616.00
2022-09-20T05:44:48.148Z,2584.00
2022-09-20T05:45:48.279Z,2636.00
2022-09-20T05:46:48.279Z,2736.00
2022-09-20T05:47:48.280Z,2768.00
2022-09-20T05:48:48.280Z,2860.00
2022-09-20T05:49:48.279Z,2928.00
2022-09-20T05:50:48.280Z,3064.00
2022-09-20T05:51:48.290Z,3224.00
2022-09-20T05:52:48.289Z,2992.00
2022-09-20T05:53:48.301Z,2736.00
2022-09-20T05:54:48.300Z,2740.00
2022-09-20T05:55:48.301Z,2756.00
2022-09-20T05:56:48.547Z,2740.00
2022-09-20T05:57:48.344Z,2916.00
2022-09-20T05:58:48.342Z,2996.00
2022-09-20T05:59:48.332Z,2788.00
2022-09-20T06:00:48.355Z,2692.00
2022-09-20T06:01:48.373Z,2880.00
2022-09-20T06:02:48.393Z,2884.00
2022-09-20T06:03:48.393Z,2912.00
2022-09-20T06:04:48.414Z,2944.00
2022-09-20T06:05:48.462Z,3024.00
2022-09-20T06:06:48.495Z,3304.00
2022-09-20T06:07:48.505Z,3244.00
2022-09-20T06:08:48.535Z,3576.00
2022-09-20T06:09:48.566Z,3580.00
2022-09-20T06:10:48.605Z,4064.00
2022-09-20T06:11:48.635Z,4212.00
2022-09-20T06:12:48.656Z,4264.00
2022-09-20T06:13:48.706Z,4516.00
2022-09-20T06:14:48.726Z,4744.00
2022-09-20T06:15:48.819Z,4640.00
2022-09-20T06:16:48.838Z,5288.00
2022-09-20T06:17:48.787Z,6408.00
2022-09-20T06:18:48.882Z,6344.00
2022-09-20T06:19:48.886Z,5804.00
2022-09-20T06:20:48.910Z,5716.00
2022-09-20T06:21:48.919Z,5380.00
2022-09-20T06:22:48.961Z,5336.00
2022-09-20T06:23:49.015Z,4792.00
2022-09-20T06:24:49.019Z,4600.00
2022-09-20T06:25:49.028Z,4528.00
2022-09-20T06:26:49.038Z,4252.00
2022-09-20T06:27:49.039Z,4428.00
2022-09-20T06:28:49.070Z,4476.00
2022-09-20T06:29:49.110Z,4464.00
2022-09-20T06:30:49.202Z,4492.00
2022-09-20T06:31:49.140Z,4740.00
2022-09-20T06:32:49.164Z,4824.00
2022-09-20T06:33:49.171Z,4888.00
2022-09-20T06:34:49.240Z,5000.00
2022-09-20T06:35:49.300Z,5424.00
2022-09-20T06:36:49.272Z,5480.00
2022-09-20T06:37:49.372Z,5840.00
2022-09-20T06:38:49.453Z,6176.00
2022-09-20T06:39:49.373Z,6188.00
2022-09-20T06:40:49.432Z,6472.00
2022-09-20T06:41:49.435Z,6028.00
2022-09-20T06:42:49.533Z,6148.00
2022-09-20T06:43:49.524Z,6800.00
2022-09-20T06:44:49.535Z,9972.00
2022-09-20T06:45:49.633Z,6336.00
2022-09-20T06:46:49.618Z,6832.00
2022-09-20T06:47:49.723Z,7088.00
2022-09-20T06:48:49.705Z,7716.00
2022-09-20T06:49:49.766Z,8280.00
2022-09-20T06:50:49.836Z,8924.00
2022-09-20T06:51:49.904Z,10036.00
2022-09-20T06:52:49.920Z,10472.00
2022-09-20T06:53:49.927Z,12748.00
2022-09-20T06:54:49.938Z,14740.00
2022-09-20T06:55:49.967Z,27616.00
2022-09-20T06:56:49.975Z,21792.00
2022-09-20T06:57:50.007Z,19808.00
2022-09-20T06:58:50.048Z,18688.00
2022-09-20T06:59:50.088Z,21632.00
2022-09-20T07:00:50.135Z,22848.00
2022-09-20T07:01:50.240Z,20192.00
2022-09-20T07:02:50.229Z,14460.00
2022-09-20T07:03:50.223Z,15176.00
2022-09-20T07:04:50.230Z,12712.00
2022-09-20T07:05:50.240Z,11036.00
2022-09-20T07:06:50.301Z,9336.00
2022-09-20T07:07:50.311Z,8316.00
2022-09-20T07:08:50.366Z,7540.00
2022-09-20T07:09:50.351Z,7000.00
2022-09-20T07:10:50.341Z,6388.00
2022-09-20T07:11:50.412Z,6240.00
2022-09-20T07:12:50.473Z,5972.00
2022-09-20T07:13:50.465Z,6220.00
2022-09-20T07:14:50.522Z,6220.00
2022-09-20T07:15:50.543Z,6520.00
2022-09-20T07:16:50.625Z,6848.00
2022-09-20T07:17:50.664Z,7180.00
2022-09-20T07:18:50.664Z,7496.00
2022-09-20T07:19:50.662Z,7204.00
2022-09-20T07:20:50.735Z,6760.00
2022-09-20T07:21:50.726Z,6532.00
2022-09-20T07:22:50.785Z,5972.00
2022-09-20T07:23:50.777Z,5248.00
2022-09-20T07:24:50.847Z,5068.00
2022-09-20T07:25:56.086Z,4500.00
2022-09-20T07:26:50.941Z,4440.00
2022-09-20T07:27:50.976Z,4248.00
2022-09-20T07:28:52.127Z,4216.00
2022-09-20T07:29:50.992Z,4276.00
2022-09-20T07:30:51.734Z,4476.00
2022-09-20T07:31:51.102Z,4540.00
2022-09-20T07:32:51.118Z,4596.00
2022-09-20T07:33:51.138Z,4448.00
2022-09-20T07:34:51.190Z,4344.00
2022-09-20T07:35:51.190Z,4368.00
2022-09-20T07:36:51.919Z,4444.00
2022-09-20T07:37:51.241Z,4628.00
2022-09-20T07:38:51.251Z,4648.00
2022-09-20T07:39:51.289Z,4780.00
2022-09-20T07:40:51.292Z,5284.00
2022-09-20T07:41:51.300Z,5404.00
2022-09-20T07:42:55.983Z,5172.00
2022-09-20T07:43:51.422Z,5188.00
2022-09-20T07:44:51.431Z,5344.00
2022-09-20T07:45:51.546Z,5296.00
2022-09-20T07:46:51.491Z,5540.00
2022-09-20T07:47:51.540Z,5628.00
2022-09-20T07:48:51.552Z,5736.00
2022-09-20T07:49:51.631Z,5928.00
2022-09-20T07:50:52.424Z,5840.00
2022-09-20T07:51:51.633Z,5924.00
2022-09-20T07:52:51.663Z,6108.00
2022-09-20T07:53:51.705Z,6100.00
2022-09-20T07:54:51.725Z,6292.00
2022-09-20T07:55:51.766Z,6328.00
2022-09-20T07:56:51.766Z,6200.00
2022-09-20T07:57:51.814Z,6092.00
2022-09-20T07:58:52.611Z,6200.00
2022-09-20T07:59:51.895Z,6448.00
2022-09-20T08:00:52.014Z,6540.00
2022-09-20T08:01:51.944Z,7116.00
2022-09-20T08:02:51.988Z,7384.00
2022-09-20T08:03:51.988Z,7336.00
2022-09-20T08:04:52.037Z,7800.00
2022-09-20T08:05:52.050Z,8260.00
2022-09-20T08:06:52.047Z,8584.00
2022-09-20T08:07:52.037Z,8732.00
2022-09-20T08:08:52.195Z,8600.00
2022-09-20T08:09:52.168Z,8644.00
2022-09-20T08:10:52.206Z,8668.00
2022-09-20T08:11:52.488Z,8620.00
2022-09-20T08:14:08.881Z,8296.00
2022-09-20T08:14:52.260Z,8704.00
2022-09-20T08:15:52.260Z,8924.00
2022-09-20T08:16:52.310Z,9736.00
2022-09-20T08:17:52.299Z,10360.00
2022-09-20T08:18:52.310Z,10760.00
2022-09-20T08:19:52.341Z,11036.00
2022-09-20T08:20:52.353Z,12052.00
2022-09-20T08:21:52.393Z,12908.00
2022-09-20T08:23:12.547Z,14028.00
2022-09-20T08:23:52.504Z,13632.00
2022-09-20T08:24:52.472Z,13524.00
2022-09-20T08:25:52.493Z,13288.00
2022-09-20T08:26:52.573Z,13808.00
2022-09-20T08:27:52.594Z,14428.00
2022-09-20T08:28:52.643Z,14328.00
2022-09-20T08:29:52.653Z,14176.00
2022-09-20T08:30:52.634Z,13704.00
2022-09-20T08:31:52.719Z,13980.00
2022-09-20T08:32:52.694Z,13724.00
2022-09-20T08:33:52.715Z,14128.00
2022-09-20T08:34:52.769Z,14188.00
2022-09-20T08:35:57.726Z,14276.00
2022-09-20T08:36:52.857Z,14752.00
2022-09-20T08:37:53.215Z,14972.00
2022-09-20T08:39:57.908Z,15080.00
2022-09-20T08:40:53.018Z,14156.00
2022-09-20T08:41:53.039Z,13692.00
2022-09-20T08:42:53.048Z,13152.00
2022-09-20T08:43:53.097Z,12084.00
2022-09-20T08:45:00.701Z,11316.00
2022-09-20T08:45:53.159Z,11332.00
2022-09-20T08:46:53.126Z,11048.00
2022-09-20T08:47:57.779Z,11028.00
2022-09-20T08:48:53.190Z,11280.00
2022-09-20T08:49:56.929Z,11476.00
2022-09-20T08:50:53.250Z,12224.00
2022-09-20T08:51:53.251Z,13188.00
2022-09-20T08:52:53.811Z,14276.00
2022-09-20T08:53:53.332Z,14952.00
2022-09-20T08:54:53.352Z,16100.00
2022-09-20T08:55:53.384Z,20096.00
2022-09-20T08:56:53.363Z,27968.00
2022-09-20T08:57:53.435Z,45088.00
2022-09-20T08:58:53.541Z,68352.00
2022-09-20T08:59:53.514Z,71360.00
2022-09-20T09:00:53.607Z,36992.00
2022-09-20T09:01:53.762Z,86048.00
2022-09-20T09:02:53.564Z,62752.00
2022-09-20T09:03:54.285Z,77600.00
2022-09-20T09:04:53.648Z,73600.00
2022-09-20T09:05:53.667Z,60608.00
2022-09-20T09:06:53.726Z,32832.00
2022-09-20T09:07:53.743Z,66400.00
2022-09-20T09:08:53.817Z,33888.00
2022-09-20T09:09:53.847Z,68480.00
2022-09-20T09:10:53.908Z,43552.00
2022-09-20T09:11:53.937Z,70080.00
2022-09-20T09:12:53.939Z,56192.00
2022-09-20T09:13:54.060Z,64672.00
2022-09-20T09:14:53.960Z,49312.00
2022-09-20T09:15:53.969Z,26016.00
2022-09-20T09:16:53.990Z,22656.00
2022-09-20T09:17:54.011Z,20480.00
2022-09-20T09:18:54.022Z,18720.00
2022-09-20T09:19:54.061Z,19040.00
2022-09-20T09:20:54.090Z,19968.00
2022-09-20T09:21:54.093Z,26784.00
2022-09-20T09:22:54.143Z,23552.00
2022-09-20T09:23:54.113Z,18720.00
2022-09-20T09:24:54.185Z,19072.00
2022-09-20T09:25:54.184Z,36480.00
2022-09-20T09:26:54.165Z,19200.00
2022-09-20T09:27:54.195Z,16992.00
2022-09-20T09:28:54.165Z,15132.00
2022-09-20T09:29:54.238Z,14816.00
2022-09-20T09:30:54.245Z,15028.00
2022-09-20T09:31:54.296Z,15644.00
2022-09-20T09:32:54.257Z,15908.00
2022-09-20T09:33:54.277Z,16368.00
2022-09-20T09:34:54.308Z,16312.00
2022-09-20T09:35:54.369Z,16164.00
2022-09-20T09:36:54.378Z,17088.00
2022-09-20T09:37:54.427Z,16420.00
2022-09-20T09:38:54.492Z,16672.00
2022-09-20T09:39:54.513Z,17952.00
2022-09-20T09:40:54.515Z,18400.00
2022-09-20T09:41:54.511Z,19808.00
2022-09-20T09:42:54.508Z,21600.00
2022-09-20T09:43:54.541Z,21280.00
2022-09-20T09:44:54.610Z,20320.00
2022-09-20T09:45:54.675Z,19552.00
2022-09-20T09:46:54.682Z,18304.00
2022-09-20T09:47:54.663Z,16960.00
2022-09-20T09:48:54.722Z,16176.00
2022-09-20T09:49:59.087Z,15396.00
2022-09-20T09:50:54.814Z,14984.00
2022-09-20T09:51:54.774Z,14748.00
2022-09-20T09:52:54.822Z,14564.00
2022-09-20T09:53:54.845Z,14420.00
2022-09-20T09:54:54.886Z,14344.00
2022-09-20T09:55:54.916Z,14580.00
2022-09-20T09:56:54.915Z,14952.00
2022-09-20T09:57:54.917Z,15472.00
2022-09-20T09:58:55.027Z,15676.00
2022-09-20T09:59:54.980Z,15744.00
2022-09-20T10:00:55.073Z,15644.00
2022-09-20T10:01:55.064Z,15636.00
2022-09-20T10:02:55.032Z,15644.00
2022-09-20T10:03:55.108Z,15420.00
2022-09-20T10:04:55.058Z,15188.00
2022-09-20T10:05:55.042Z,14832.00
2022-09-20T10:06:55.080Z,15188.00
2022-09-20T10:07:55.160Z,14212.00
2022-09-20T10:08:55.139Z,14160.00
2022-09-20T10:09:55.223Z,14628.00
2022-09-20T10:10:55.181Z,14904.00
2022-09-20T10:11:55.272Z,14800.00
2022-09-20T10:12:55.303Z,14884.00
2022-09-20T10:13:55.357Z,15696.00
2022-09-20T10:14:55.363Z,22080.00
2022-09-20T10:15:55.421Z,33024.00
2022-09-20T10:16:55.445Z,37504.00
2022-09-20T10:17:55.413Z,38784.00
2022-09-20T10:18:55.464Z,39456.00
2022-09-20T10:19:55.504Z,36256.00
2022-09-20T10:20:55.546Z,38944.00
2022-09-20T10:21:55.575Z,38208.00
2022-09-20T10:23:26.799Z,35712.00
2022-09-20T10:24:04.243Z,34112.00
2022-09-20T10:24:55.702Z,32864.00
2022-09-20T10:25:55.707Z,35872.00
2022-09-20T10:26:55.758Z,35040.00
2022-09-20T10:27:55.807Z,34880.00
2022-09-20T10:28:55.920Z,36224.00
2022-09-20T10:29:55.907Z,37248.00
2022-09-20T10:30:55.903Z,35840.00
2022-09-20T10:31:55.920Z,25312.00
2022-09-20T10:32:55.880Z,20640.00
2022-09-20T10:33:55.901Z,18944.00
2022-09-20T10:34:55.901Z,19232.00
2022-09-20T10:35:55.917Z,19680.00
2022-09-20T10:36:55.982Z,20800.00
2022-09-20T10:37:55.992Z,24320.00
2022-09-20T10:38:56.002Z,22752.00
2022-09-20T10:39:56.063Z,19680.00
2022-09-20T10:40:56.100Z,19232.00
2022-09-20T10:41:56.164Z,19040.00
2022-09-20T10:42:56.172Z,18848.00
2022-09-20T10:43:57.542Z,18912.00
2022-09-20T10:44:56.214Z,19456.00
2022-09-20T10:46:56.334Z,19488.00
2022-09-20T10:47:56.287Z,18560.00
2022-09-20T10:48:56.338Z,17824.00
2022-09-20T10:49:56.327Z,16992.00
2022-09-20T10:50:56.319Z,16992.00
2022-09-20T10:51:56.328Z,15904.00
2022-09-20T10:52:56.340Z,14676.00
2022-09-20T10:53:56.399Z,13036.00
2022-09-20T10:54:56.490Z,12624.00
2022-09-20T10:55:56.460Z,12276.00
2022-09-20T10:56:56.458Z,12764.00
2022-09-20T10:57:56.511Z,13280.00
2022-09-20T10:58:56.557Z,14440.00
2022-09-20T10:59:56.580Z,14804.00
2022-09-20T11:00:56.620Z,15168.00
2022-09-20T11:01:56.652Z,15356.00
2022-09-20T11:02:56.617Z,15636.00
2022-09-20T11:03:56.613Z,16640.00
2022-09-20T11:04:56.623Z,16704.00
2022-09-20T11:05:56.713Z,18336.00
2022-09-20T11:06:56.704Z,19872.00
2022-09-20T11:07:56.714Z,19008.00
2022-09-20T11:08:56.755Z,24480.00
2022-09-20T11:09:56.785Z,24384.00
2022-09-20T11:10:56.806Z,23584.00
2022-09-20T11:11:56.776Z,24032.00
2022-09-20T11:12:56.795Z,21184.00
2022-09-20T11:13:56.827Z,20960.00
2022-09-20T11:14:56.875Z,20448.00
2022-09-20T11:15:56.889Z,18752.00
2022-09-20T11:16:56.922Z,18624.00
2022-09-20T11:17:56.934Z,14088.00
2022-09-20T11:18:56.983Z,15800.00
2022-09-20T11:19:56.991Z,20320.00
2022-09-20T11:20:57.051Z,17184.00
2022-09-20T11:21:57.091Z,18176.00
2022-09-20T11:22:57.108Z,17120.00
2022-09-20T11:23:57.148Z,17280.00
2022-09-20T11:24:57.150Z,16192.00
2022-09-20T11:25:57.155Z,16544.00
2022-09-20T11:26:57.225Z,16896.00
2022-09-20T11:27:57.195Z,17440.00
2022-09-20T11:28:57.198Z,17408.00
2022-09-20T11:29:57.203Z,18112.00
2022-09-20T11:30:57.205Z,16288.00
2022-09-20T11:31:57.336Z,11024.00
2022-09-20T11:32:57.265Z,11968.00
2022-09-20T11:33:57.297Z,20384.00
2022-09-20T11:34:57.286Z,19552.00
2022-09-20T11:35:57.298Z,17408.00
2022-09-20T11:36:57.307Z,15980.00
2022-09-20T11:37:57.317Z,9076.00
2022-09-20T11:38:57.328Z,8960.00
2022-09-20T11:39:57.386Z,8056.00
2022-09-20T11:40:57.369Z,7284.00
2022-09-20T11:41:57.389Z,6628.00
2022-09-20T11:42:57.430Z,6252.00
2022-09-20T11:43:57.500Z,6140.00
2022-09-20T11:44:57.489Z,5488.00
2022-09-20T11:45:57.584Z,5088.00
2022-09-20T11:46:57.531Z,4740.00
2022-09-20T11:47:57.534Z,4696.00
2022-09-20T11:48:57.573Z,5104.00
2022-09-20T11:49:57.592Z,5624.00
2022-09-20T11:50:57.591Z,12896.00
2022-09-20T11:51:57.604Z,12132.00
2022-09-20T11:52:57.716Z,13764.00
2022-09-20T11:53:57.634Z,13688.00
2022-09-20T11:54:57.706Z,13876.00
2022-09-20T11:55:57.725Z,14064.00
2022-09-20T11:56:57.738Z,14376.00
2022-09-20T11:58:01.795Z,13728.00
2022-09-20T11:58:57.891Z,14304.00
2022-09-20T11:59:57.917Z,14516.00
2022-09-20T12:00:57.957Z,15108.00
2022-09-20T12:01:58.214Z,15572.00
2022-09-20T12:02:58.203Z,16352.00
2022-09-20T12:04:20.596Z,16288.00
2022-09-20T12:04:58.101Z,16256.00
2022-09-20T12:05:58.143Z,16064.00
2022-09-20T12:06:58.189Z,17632.00
2022-09-20T12:07:58.235Z,15364.00
2022-09-20T12:08:58.230Z,17600.00
2022-09-20T12:09:58.289Z,17664.00
2022-09-20T12:10:58.311Z,15764.00
2022-09-20T12:11:58.341Z,18464.00
2022-09-20T12:12:58.352Z,20128.00
2022-09-20T12:13:58.352Z,21792.00
2022-09-20T12:14:58.362Z,21408.00
2022-09-20T12:15:58.373Z,19456.00
2022-09-20T12:16:58.383Z,19744.00
2022-09-20T12:17:58.437Z,8584.00
2022-09-20T12:18:58.501Z,16608.00
2022-09-20T12:19:58.545Z,16288.00
2022-09-20T12:20:58.565Z,17120.00
2022-09-20T12:21:58.587Z,16800.00
2022-09-20T12:22:58.567Z,16288.00
2022-09-20T12:23:58.586Z,16384.00
2022-09-20T12:24:58.637Z,15744.00
2022-09-20T12:25:58.668Z,15424.00
2022-09-20T12:26:58.734Z,15380.00
2022-09-20T12:27:58.788Z,14776.00
2022-09-20T12:28:58.790Z,14820.00
2022-09-20T12:29:58.869Z,12836.00
2022-09-20T12:30:58.909Z,9116.00
2022-09-20T12:31:59.025Z,15188.00